Time;durP1;ratioP1;P1;durP2;ratioP2;P2;SDS_P1;SDS_P2;PMS_P1;PMS_P2;Temp;Humidity;BMP_temperature;BMP_pressure;BME280_temperature;BME280_humidity;BME280_pressure;Samples;Min_cycle;Max_cycle;Signal;HPM_P1;HPM_P2
2023/08/04 00:00:14;;;;;;;19.05;7.97;;;;;;;13.63;100.00;100938.28;6081618;23;20035;-71
2023/08/04 00:02:39;;;;;;;15.82;7.82;;;;;;;13.66;100.00;100940.84;6129408;23;20021;-71
2023/08/04 00:05:06;;;;;;;14.93;7.25;;;;;;;13.67;100.00;100947.81;6082047;23;20016;-71
2023/08/04 00:07:36;;;;;;;15.77;7.85;;;;;;;13.69;100.00;100940.78;6129371;23;20511;-71
2023/08/04 00:10:03;;;;;;;19.07;8.00;;;;;;;13.71;100.00;100938.09;6105691;23;20032;-71
2023/08/04 00:12:29;;;;;;;15.05;7.22;;;;;;;13.68;100.00;100951.34;6105988;23;20010;-71
2023/08/04 00:14:55;;;;;;;16.35;7.63;;;;;;;13.62;100.00;100941.81;6130286;23;20060;-71
2023/08/04 00:17:20;;;;;;;15.35;7.72;;;;;;;13.69;100.00;100946.03;6104485;23;20017;-71
2023/08/04 00:19:46;;;;;;;15.35;7.80;;;;;;;13.58;100.00;100955.94;6130645;23;20042;-71
2023/08/04 00:22:11;;;;;;;16.80;7.82;;;;;;;13.61;100.00;100953.25;6156153;23;19998;-71
2023/08/04 00:24:37;;;;;;;18.50;7.95;;;;;;;13.61;100.00;100957.66;6105523;23;20020;-71
2023/08/04 00:27:03;;;;;;;18.67;8.25;;;;;;;13.60;100.00;100966.44;6105342;23;20018;-71
2023/08/04 00:29:29;;;;;;;15.25;7.75;;;;;;;13.61;100.00;100973.44;6105590;23;20009;-69
2023/08/04 00:31:54;;;;;;;13.52;7.53;;;;;;;13.56;100.00;100960.38;6081178;23;20063;-69
2023/08/04 00:34:20;;;;;;;15.73;7.72;;;;;;;13.58;100.00;100963.00;6104103;23;20095;-69
2023/08/04 00:36:46;;;;;;;13.48;7.45;;;;;;;13.53;100.00;100963.06;6105159;23;20017;-68
2023/08/04 00:39:13;;;;;;;17.88;7.70;;;;;;;13.52;100.00;100966.63;6105012;23;20019;-69
2023/08/04 00:41:39;;;;;;;15.27;7.38;;;;;;;13.48;100.00;100968.44;6082144;23;20115;-69
2023/08/04 00:44:04;;;;;;;17.02;7.93;;;;;;;13.52;100.00;100979.78;6081052;23;20025;-69
2023/08/04 00:46:30;;;;;;;17.20;8.52;;;;;;;13.45;100.00;100979.03;6104288;23;20408;-68
2023/08/04 00:48:59;;;;;;;14.95;7.50;;;;;;;13.34;100.00;100976.63;6104496;23;20423;-68
2023/08/04 00:51:26;;;;;;;14.50;7.83;;;;;;;13.38;100.00;100980.06;6105593;23;20105;-69
2023/08/04 00:53:52;;;;;;;12.98;7.13;;;;;;;13.38;100.00;100976.59;6104950;23;20432;-69
2023/08/04 00:56:18;;;;;;;14.63;7.22;;;;;;;13.22;100.00;100983.91;6129867;23;20010;-68
2023/08/04 00:58:44;;;;;;;9.38;6.72;;;;;;;13.18;100.00;100991.84;6104907;23;20513;-68
2023/08/04 01:01:10;;;;;;;19.95;7.60;;;;;;;13.20;100.00;100983.06;6104975;23;20072;-69
2023/08/04 01:03:37;;;;;;;15.15;7.75;;;;;;;13.16;100.00;100988.38;6128992;23;20025;-69
2023/08/04 01:06:19;;;;;;;15.85;7.45;;;;;;;13.21;100.00;100992.69;6129753;23;20006;-69
2023/08/04 01:09:00;;;;;;;15.63;8.05;;;;;;;13.20;100.00;100996.19;6128933;23;20001;-68
2023/08/04 01:11:29;;;;;;;;;;;;;;;13.38;100.00;100997.63;6130040;23;20009;-69
2023/08/04 01:13:55;;;;;;;15.65;7.68;;;;;;;13.31;100.00;101002.13;6129373;23;19908;-69
2023/08/04 01:16:20;;;;;;;16.65;7.40;;;;;;;13.22;100.00;100989.16;6104394;23;20847;-68
2023/08/04 01:18:46;;;;;;;13.93;8.02;;;;;;;13.22;100.00;100994.44;6079759;23;20039;-69
2023/08/04 01:21:11;;;;;;;14.75;7.63;;;;;;;13.29;100.00;100993.41;6080617;23;20021;-68
2023/08/04 01:23:37;;;;;;;17.92;8.27;;;;;;;13.31;100.00;101002.97;6104346;23;20013;-69
2023/08/04 01:26:06;;;;;;;18.08;8.32;;;;;;;13.31;100.00;101000.34;6080888;23;20108;-69
2023/08/04 01:28:33;;;;;;;12.63;7.50;;;;;;;13.29;100.00;101012.69;6104761;23;20037;-67
2023/08/04 01:31:00;;;;;;;17.27;8.43;;;;;;;13.25;100.00;101004.88;6128856;23;20013;-68
2023/08/04 01:33:28;;;;;;;18.67;8.10;;;;;;;13.30;100.00;101008.28;6127805;23;20452;-68
2023/08/04 01:35:53;;;;;;;16.52;8.60;;;;;;;13.29;100.00;101004.78;6155103;23;20029;-69
2023/08/04 01:38:19;;;;;;;17.17;8.57;;;;;;;13.30;100.00;101003.91;6104762;23;20424;-68
2023/08/04 01:40:44;;;;;;;14.98;7.88;;;;;;;13.28;100.00;101010.09;6080991;23;20427;-69
2023/08/04 01:43:10;;;;;;;15.95;8.35;;;;;;;13.28;100.00;101012.72;6129003;23;20021;-69
2023/08/04 01:45:35;;;;;;;19.42;8.68;;;;;;;13.21;100.00;101021.63;6080430;23;20017;-68
2023/08/04 01:48:01;;;;;;;14.85;9.10;;;;;;;13.16;100.00;101017.31;6080121;23;20014;-68
2023/08/04 01:50:26;;;;;;;16.17;8.30;;;;;;;13.19;100.00;101019.03;6104738;23;20332;-69
2023/08/04 01:52:52;;;;;;;16.35;8.52;;;;;;;13.21;100.00;101016.38;6129090;23;20045;-68
2023/08/04 01:55:17;;;;;;;17.50;9.07;;;;;;;13.23;100.00;101017.19;6104338;23;20020;-69
2023/08/04 01:57:43;;;;;;;18.00;8.63;;;;;;;13.19;100.00;101016.41;6116832;23;20020;-69
2023/08/04 02:00:09;;;;;;;15.23;9.18;;;;;;;13.18;100.00;101020.78;6128726;23;20088;-69
2023/08/04 02:02:34;;;;;;;17.08;9.50;;;;;;;13.20;100.00;101022.53;6103145;23;20098;-68
2023/08/04 02:05:00;;;;;;;16.02;9.32;;;;;;;13.18;100.00;101018.16;6079601;23;20440;-68
2023/08/04 02:07:25;;;;;;;16.98;9.07;;;;;;;13.15;100.00;101020.84;6104491;23;20037;-69
2023/08/04 02:09:52;;;;;;;14.90;9.00;;;;;;;13.12;100.00;101015.66;6104532;23;20103;-68
2023/08/04 02:12:18;;;;;;;16.67;9.48;;;;;;;13.02;100.00;101019.34;6104465;23;20013;-69
2023/08/04 02:14:43;;;;;;;17.45;8.95;;;;;;;13.00;100.00;101019.38;6104371;23;20447;-68
2023/08/04 02:17:09;;;;;;;16.35;9.30;;;;;;;13.00;100.00;101029.03;6079232;23;20010;-68
2023/08/04 02:19:34;;;;;;;17.35;9.05;;;;;;;12.95;100.00;101034.38;6103226;23;20016;-68
2023/08/04 02:22:00;;;;;;;16.45;8.70;;;;;;;13.03;100.00;101038.63;6079694;23;20014;-69
2023/08/04 02:24:25;;;;;;;16.67;9.13;;;;;;;12.94;100.00;101032.66;6104071;23;20018;-68
2023/08/04 02:26:51;;;;;;;17.02;9.45;;;;;;;12.94;100.00;101034.41;6104351;23;20065;-69
2023/08/04 02:29:16;;;;;;;18.02;8.60;;;;;;;12.86;100.00;101034.56;6079756;23;20013;-68
2023/08/04 02:31:41;;;;;;;18.30;8.68;;;;;;;12.84;100.00;101041.59;6079972;23;20041;-68
2023/08/04 02:34:07;;;;;;;15.50;8.52;;;;;;;12.75;100.00;101039.13;6102811;23;20103;-69
2023/08/04 02:36:32;;;;;;;18.83;8.93;;;;;;;12.70;100.00;101031.34;6104418;23;20020;-68
2023/08/04 02:38:58;;;;;;;17.85;8.10;;;;;;;12.80;100.00;101038.16;6103996;23;20014;-68
2023/08/04 02:41:23;;;;;;;15.60;8.93;;;;;;;12.73;100.00;101041.78;6104147;23;20013;-68
2023/08/04 02:43:49;;;;;;;16.85;9.48;;;;;;;12.70;100.00;101033.06;6079862;23;20010;-69
2023/08/04 02:46:14;;;;;;;16.55;8.77;;;;;;;12.72;100.00;101040.06;6103725;23;20010;-68
2023/08/04 02:48:40;;;;;;;17.42;9.10;;;;;;;12.72;100.00;101039.19;6079517;23;20013;-68
2023/08/04 02:51:08;;;;;;;15.95;9.40;;;;;;;12.75;100.00;101047.88;6104030;23;20108;-69
2023/08/04 02:53:35;;;;;;;16.67;8.55;;;;;;;12.77;100.00;101045.22;6128239;23;20009;-68
2023/08/04 02:56:09;;;;;;;14.57;9.15;;;;;;;12.76;100.00;101047.00;6128537;23;20016;-68
2023/08/04 02:58:34;;;;;;;16.90;8.70;;;;;;;12.78;100.00;101044.34;6127999;23;20502;-69
2023/08/04 03:01:00;;;;;;;20.52;9.55;;;;;;;12.81;100.00;101039.91;6103458;23;20092;-68
2023/08/04 03:03:25;;;;;;;17.48;9.57;;;;;;;12.79;100.00;101046.94;6103090;23;20091;-68
2023/08/04 03:05:50;;;;;;;15.02;8.98;;;;;;;12.83;100.00;101045.13;6104067;23;20436;-69
2023/08/04 03:08:16;;;;;;;18.45;10.50;;;;;;;12.87;100.00;101043.31;6104530;23;20013;-68
2023/08/04 03:10:42;;;;;;;13.68;8.57;;;;;;;12.90;100.00;101048.50;6105934;23;20044;-66
2023/08/04 03:13:10;;;;;;;15.02;9.23;;;;;;;12.90;100.00;101048.50;6081852;23;20036;-66
2023/08/04 03:15:36;;;;;;;15.88;9.73;;;;;;;12.93;100.00;101056.34;6105398;23;20005;-67
2023/08/04 03:18:02;;;;;;;17.52;9.98;;;;;;;12.95;100.00;101052.78;6104956;23;20013;-67
2023/08/04 03:20:37;;;;;;;16.13;10.10;;;;;;;12.99;100.00;101057.09;6106181;23;20024;-66
2023/08/04 03:23:03;;;;;;;17.23;9.55;;;;;;;13.04;100.00;101057.00;6129675;23;20336;-66
2023/08/04 03:25:29;;;;;;;15.93;9.65;;;;;;;13.06;100.00;101057.88;6080749;23;20422;-66
2023/08/04 03:27:55;;;;;;;16.88;10.38;;;;;;;13.06;100.00;101060.50;6105371;23;20033;-66
2023/08/04 03:30:20;;;;;;;17.83;9.93;;;;;;;13.08;100.00;101055.19;6081198;23;20376;-67
2023/08/04 03:32:46;;;;;;;16.73;9.93;;;;;;;13.08;100.00;101058.69;6104477;23;20012;-67
2023/08/04 03:35:11;;;;;;;21.67;10.30;;;;;;;13.11;100.00;101063.88;6129668;23;20065;-66
2023/08/04 03:37:36;;;;;;;16.30;9.77;;;;;;;13.15;100.00;101065.56;6081620;23;20013;-66
2023/08/04 03:40:02;;;;;;;17.55;10.10;;;;;;;13.10;100.00;101067.44;6105908;23;20013;-68
2023/08/04 03:42:28;;;;;;;16.77;9.85;;;;;;;13.13;100.00;101055.97;6105861;23;20132;-69
2023/08/04 03:44:53;;;;;;;13.90;9.15;;;;;;;13.12;100.00;101059.50;6105784;23;20437;-68
2023/08/04 03:47:20;;;;;;;15.05;9.20;;;;;;;13.16;100.00;101062.06;6103167;23;20013;-69
2023/08/04 03:49:45;;;;;;;17.02;10.15;;;;;;;13.10;100.00;101058.66;6105070;23;20017;-69
2023/08/04 03:52:10;;;;;;;17.85;9.90;;;;;;;13.11;100.00;101061.25;6081216;23;20060;-69
2023/08/04 03:54:36;;;;;;;15.25;9.65;;;;;;;13.16;100.00;101059.41;6081621;23;20035;-69
2023/08/04 03:57:02;;;;;;;17.08;9.98;;;;;;;13.15;100.00;101068.19;6129894;23;20062;-69
2023/08/04 03:59:28;;;;;;;16.10;9.65;;;;;;;13.18;100.00;101070.78;6105392;23;20061;-69
2023/08/04 04:01:53;;;;;;;25.17;11.52;;;;;;;13.17;100.00;101071.69;6104332;23;20017;-69
2023/08/04 04:04:18;;;;;;;15.20;10.13;;;;;;;13.16;100.00;101066.47;6080690;23;20100;-66
2023/08/04 04:06:44;;;;;;;18.10;10.45;;;;;;;13.16;100.00;101062.06;6081418;23;20096;-66
2023/08/04 04:09:09;;;;;;;18.33;9.80;;;;;;;13.16;100.00;101064.69;6080307;23;20041;-67
2023/08/04 04:11:35;;;;;;;20.08;9.73;;;;;;;13.18;100.00;101064.66;6081480;23;20110;-66
2023/08/04 04:14:00;;;;;;;19.20;9.73;;;;;;;13.16;100.00;101072.56;6130053;23;20016;-67
2023/08/04 04:16:29;;;;;;;14.77;9.52;;;;;;;13.17;100.00;101079.59;6104470;23;20025;-67
2023/08/04 04:18:55;;;;;;;13.93;9.85;;;;;;;13.23;100.00;101077.72;6104981;23;20348;-66
2023/08/04 04:21:21;;;;;;;14.02;8.82;;;;;;;13.14;100.00;101082.25;6105086;23;20069;-67
2023/08/04 04:23:46;;;;;;;16.98;10.82;;;;;;;13.18;100.00;101077.81;6105803;23;20013;-69
2023/08/04 04:26:12;;;;;;;16.83;9.88;;;;;;;13.17;100.00;101087.47;6081302;23;20420;-69
2023/08/04 04:28:37;;;;;;;17.80;9.93;;;;;;;13.16;100.00;101083.09;6155483;23;20005;-69
2023/08/04 04:31:03;;;;;;;17.27;9.98;;;;;;;13.19;100.00;101092.72;6080583;23;20103;-69
2023/08/04 04:33:29;;;;;;;13.77;9.35;;;;;;;13.21;100.00;101101.44;6104068;23;20432;-68
2023/08/04 04:35:54;;;;;;;17.13;9.80;;;;;;;13.23;100.00;101093.50;6103821;23;20096;-69
2023/08/04 04:38:20;;;;;;;17.55;9.93;;;;;;;13.27;100.00;101095.19;6128957;23;20480;-69
2023/08/04 04:41:00;;;;;;;15.73;9.98;;;;;;;13.32;100.00;101095.97;6128820;23;20020;-69
2023/08/04 04:43:26;;;;;;;16.35;10.38;;;;;;;13.28;100.00;101102.19;6105500;23;20455;-69
2023/08/04 04:45:52;;;;;;;15.65;10.98;;;;;;;13.30;100.00;101103.91;6128723;23;20009;-69
2023/08/04 04:48:18;;;;;;;13.73;9.82;;;;;;;13.29;100.00;101102.16;6128771;23;20089;-69
2023/08/04 04:50:44;;;;;;;17.05;10.35;;;;;;;13.36;100.00;101105.59;6129686;23;20439;-68
2023/08/04 04:53:09;;;;;;;15.35;11.38;;;;;;;13.32;100.00;101109.13;6105209;23;20048;-69
2023/08/04 04:55:35;;;;;;;19.50;10.48;;;;;;;13.34;100.00;101113.47;6129468;23;20005;-69
2023/08/04 04:58:01;;;;;;;17.48;10.52;;;;;;;13.33;100.00;101110.84;6105297;23;20013;-69
2023/08/04 05:00:26;;;;;;;20.70;10.85;;;;;;;13.31;100.00;101112.66;6104956;23;20495;-69
2023/08/04 05:02:52;;;;;;;13.57;10.02;;;;;;;13.34;100.00;101117.84;6128870;23;20049;-68
2023/08/04 05:05:17;;;;;;;19.70;11.15;;;;;;;13.34;100.00;101116.13;6080796;23;20009;-69
2023/08/04 05:07:43;;;;;;;12.45;10.38;;;;;;;13.37;100.00;101116.97;6081065;23;20009;-69
2023/08/04 05:10:09;;;;;;;13.60;10.32;;;;;;;13.37;100.00;101116.97;6081156;23;20480;-68
2023/08/04 05:12:35;;;;;;;16.15;10.30;;;;;;;13.34;100.00;101117.84;6105287;23;20016;-69
2023/08/04 05:15:00;;;;;;;21.13;11.07;;;;;;;13.43;100.00;101123.00;6127994;23;20164;-69
2023/08/04 05:17:25;;;;;;;13.52;10.85;;;;;;;13.45;100.00;101123.81;6127244;23;20014;-69
2023/08/04 05:19:51;;;;;;;20.60;11.77;;;;;;;13.43;100.00;101127.38;6081110;23;20025;-68
2023/08/04 05:22:16;;;;;;;19.50;12.85;;;;;;;13.40;100.00;101127.44;6128959;23;20037;-68
2023/08/04 05:24:42;;;;;;;16.05;11.60;;;;;;;13.43;100.00;101127.38;6104340;23;20025;-68
2023/08/04 05:27:08;;;;;;;16.98;11.52;;;;;;;13.49;100.00;101132.53;6103498;23;20049;-69
2023/08/04 05:29:35;;;;;;;18.95;12.15;;;;;;;13.46;100.00;101128.19;6128752;23;20013;-69
2023/08/04 05:32:00;;;;;;;22.98;12.88;;;;;;;13.54;100.00;101132.44;6127484;23;20067;-69
2023/08/04 05:34:26;;;;;;;18.73;12.63;;;;;;;13.58;100.00;101139.41;6102582;23;20437;-69
2023/08/04 05:36:51;;;;;;;16.50;12.40;;;;;;;13.57;100.00;101141.13;6080415;23;20021;-69
2023/08/04 05:39:17;;;;;;;17.85;12.05;;;;;;;13.67;100.00;101152.38;6080238;23;20458;-69
2023/08/04 05:41:45;;;;;;;17.92;12.00;;;;;;;13.68;100.00;101147.06;6128811;23;20021;-69
2023/08/04 05:44:11;;;;;;;15.75;12.40;;;;;;;13.75;100.00;101139.94;6128465;23;20013;-69
2023/08/04 05:46:37;;;;;;;17.35;12.75;;;;;;;13.98;100.00;101149.13;6128381;23;20020;-69
2023/08/04 05:49:03;;;;;;;18.08;12.05;;;;;;;15.97;100.00;101141.53;6103602;23;20037;-69
2023/08/04 05:51:28;;;;;;;15.98;10.95;;;;;;;18.42;90.41;101145.56;6104715;23;20013;-69
2023/08/04 05:53:54;;;;;;;13.63;10.35;;;;;;;20.30;83.73;101152.53;6104553;23;20006;-69
2023/08/04 05:56:19;;;;;;;12.95;8.85;;;;;;;21.51;73.26;101160.78;6080706;23;20399;-69
2023/08/04 05:58:45;;;;;;;12.10;8.40;;;;;;;23.18;70.31;101165.72;6155129;23;20339;-69
2023/08/04 06:01:10;;;;;;;13.40;8.27;;;;;;;22.20;65.81;101166.00;6103440;23;20017;-69
2023/08/04 06:03:35;;;;;;;17.08;7.32;;;;;;;20.88;68.56;101163.97;6079623;23;20020;-69
2023/08/04 06:06:01;;;;;;;10.75;7.30;;;;;;;19.82;72.16;101173.34;6104290;23;20615;-69
2023/08/04 06:08:26;;;;;;;12.35;7.68;;;;;;;19.78;76.83;101174.38;6102686;23;20013;-69
2023/08/04 06:10:52;;;;;;;10.50;7.78;;;;;;;21.61;73.00;101178.00;6104283;23;20020;-69
2023/08/04 06:13:17;;;;;;;10.68;7.60;;;;;;;23.15;67.97;101173.06;6128780;23;20017;-69
2023/08/04 06:15:43;;;;;;;11.73;6.40;;;;;;;22.38;64.34;101186.34;6103650;23;20018;-69
2023/08/04 06:18:08;;;;;;;8.52;5.85;;;;;;;23.98;64.36;101183.22;6078556;23;20100;-69
2023/08/04 06:20:33;;;;;;;14.23;6.53;;;;;;;25.43;58.75;101187.16;6104452;23;20020;-70
2023/08/04 06:22:59;;;;;;;8.32;5.85;;;;;;;24.71;57.10;101190.16;6103934;23;20013;-67
2023/08/04 06:25:24;;;;;;;10.15;6.68;;;;;;;23.32;60.26;101190.78;6104415;23;20032;-67
2023/08/04 06:27:50;;;;;;;11.82;6.70;;;;;;;22.09;63.72;101198.59;6079946;23;20435;-67
2023/08/04 06:30:16;;;;;;;10.30;6.15;;;;;;;21.10;67.03;101201.03;6103483;23;20016;-67
2023/08/04 06:32:42;;;;;;;12.63;7.25;;;;;;;20.40;70.18;101196.41;6102637;23;20021;-67
2023/08/04 06:35:08;;;;;;;14.57;7.57;;;;;;;19.84;71.62;101195.44;6104170;23;20044;-67
2023/08/04 06:37:34;;;;;;;13.15;7.82;;;;;;;19.29;74.74;101203.97;6103588;23;20074;-67
2023/08/04 06:39:59;;;;;;;13.10;7.78;;;;;;;18.92;76.30;101197.56;6153848;23;20040;-67
2023/08/04 06:42:25;;;;;;;9.85;6.95;;;;;;;18.68;78.12;101200.25;6076752;23;20468;-67
2023/08/04 06:44:50;;;;;;;13.02;7.30;;;;;;;18.41;79.87;101206.66;6128041;23;20428;-67
2023/08/04 06:47:16;;;;;;;11.32;7.32;;;;;;;18.29;81.17;101205.34;6078339;23;20017;-67
2023/08/04 06:49:43;;;;;;;12.13;8.23;;;;;;;18.03;82.53;101214.25;6077777;23;20021;-69
2023/08/04 06:52:08;;;;;;;12.65;7.78;;;;;;;18.29;82.56;101208.00;6127942;23;20009;-69
2023/08/04 06:54:34;;;;;;;13.00;7.70;;;;;;;17.94;83.27;101213.69;6127088;23;20348;-69
2023/08/04 06:57:01;;;;;;;13.35;7.07;;;;;;;18.14;84.71;101204.13;6124100;23;20006;-69
2023/08/04 06:59:27;;;;;;;14.75;7.05;;;;;;;18.69;86.28;101209.94;6078157;23;20027;-69
2023/08/04 07:01:52;;;;;;;11.02;6.60;;;;;;;18.76;82.24;101204.38;6078581;23;20033;-69
2023/08/04 07:04:18;;;;;;;13.80;6.60;;;;;;;18.67;81.72;101211.78;6103032;23;20021;-69
2023/08/04 07:06:43;;;;;;;11.27;6.47;;;;;;;18.58;83.72;101221.91;6127948;23;20384;-69
2023/08/04 07:09:08;;;;;;;13.55;6.45;;;;;;;18.56;83.93;101219.31;6102092;23;20445;-69
2023/08/04 07:11:34;;;;;;;12.82;6.10;;;;;;;18.56;83.88;101224.63;6128226;23;20033;-69
2023/08/04 07:13:59;;;;;;;9.38;5.50;;;;;;;18.44;83.90;101223.28;6103253;23;20018;-69
2023/08/04 07:16:25;;;;;;;13.40;5.55;;;;;;;18.41;83.30;101226.06;6079899;23;20005;-69
2023/08/04 07:18:50;;;;;;;8.55;4.80;;;;;;;18.43;84.94;101226.91;6076642;23;20423;-69
2023/08/04 07:21:16;;;;;;;9.95;5.20;;;;;;;18.34;84.89;101233.38;6080021;23;20018;-69
2023/08/04 07:23:42;;;;;;;10.13;5.50;;;;;;;18.29;85.68;101227.41;6103864;23;20022;-69
2023/08/04 07:26:09;;;;;;;9.50;5.05;;;;;;;18.35;85.96;101232.47;6121046;23;20028;-68
2023/08/04 07:28:35;;;;;;;10.00;4.05;;;;;;;18.32;84.13;101227.28;6163021;23;20028;-67
2023/08/04 07:33:37;;;;;;;8.95;3.63;;;;;;;18.29;85.27;101238.03;6199401;22;20033;-69
2023/08/04 07:36:03;;;;;;;8.60;3.28;;;;;;;18.24;84.79;101232.00;6184118;22;20016;-67
2023/08/04 07:41:04;;;;;;;7.75;3.65;;;;;;;17.97;86.08;101221.53;6189751;22;20021;-67
2023/08/04 07:57:41;;;;;;;7.57;3.70;;;;;;;18.08;85.56;101244.13;6150346;22;1162154;31
2023/08/04 08:14:46;;;;;;;7.25;2.90;;;;;;;17.96;85.42;101250.75;6215336;23;20020;-69
2023/08/04 08:17:32;;;;;;;5.47;3.10;;;;;;;18.23;86.32;101264.78;6190194;23;20332;-69
2023/08/04 08:19:58;;;;;;;7.25;3.30;;;;;;;18.25;83.86;101252.31;6190338;23;20457;-69
2023/08/04 08:22:23;;;;;;;5.05;2.97;;;;;;;18.42;85.08;101253.47;6190284;23;20008;-69
2023/08/04 08:24:56;;;;;;;4.93;2.55;;;;;;;18.54;84.54;101263.63;6165460;23;20419;-69
2023/08/04 08:27:21;;;;;;;7.82;3.22;;;;;;;18.70;83.09;101263.88;6141043;23;20036;-69
2023/08/04 08:29:52;;;;;;;6.03;2.60;;;;;;;18.65;81.28;101266.72;6189427;23;20414;-69
2023/08/04 08:32:17;;;;;;;6.53;2.90;;;;;;;18.81;82.09;101263.47;6187707;23;20015;-69
2023/08/04 08:34:44;;;;;;;4.53;2.30;;;;;;;18.89;81.38;101274.66;6188975;23;20096;-69
2023/08/04 08:37:09;;;;;;;7.20;2.67;;;;;;;18.95;79.99;101269.13;6189054;23;20008;-69
2023/08/04 08:39:35;;;;;;;7.22;2.60;;;;;;;19.13;80.50;101266.66;6164568;23;20074;-69
2023/08/04 08:42:00;;;;;;;7.40;2.75;;;;;;;19.26;80.86;101272.34;6164680;23;20013;-69
2023/08/04 08:44:26;;;;;;;5.35;2.15;;;;;;;19.30;78.55;101274.78;6189403;23;20012;-69
2023/08/04 08:46:52;;;;;;;4.50;2.30;;;;;;;19.25;76.36;101275.91;6164071;23;20414;-69
2023/08/04 08:49:23;;;;;;;6.82;2.17;;;;;;;19.23;77.17;101283.94;6188332;23;20390;-69
2023/08/04 08:51:52;;;;;;;2.88;1.80;;;;;;;19.20;77.83;101284.06;6188993;23;20008;-69
2023/08/04 08:54:19;;;;;;;4.25;1.95;;;;;;;18.98;77.14;101287.59;6189037;23;20059;-69
2023/08/04 08:56:45;;;;;;;4.47;2.20;;;;;;;18.81;78.08;101288.22;6164501;23;20017;-69
2023/08/04 08:59:10;;;;;;;5.75;2.40;;;;;;;18.72;78.78;101293.91;6164209;23;20016;-69
2023/08/04 09:01:36;;;;;;;7.55;1.98;;;;;;;18.51;77.45;101296.44;6164137;23;20351;-69
2023/08/04 09:04:03;;;;;;;5.05;2.60;;;;;;;18.58;78.50;101299.75;6188306;23;20419;-69
2023/08/04 09:06:29;;;;;;;5.43;2.55;;;;;;;18.59;79.70;101298.81;6188507;23;20005;-69
2023/08/04 09:08:55;;;;;;;5.13;2.40;;;;;;;18.63;80.59;101303.09;6188881;23;20384;-69
2023/08/04 09:11:21;;;;;;;3.90;2.15;;;;;;;18.73;80.08;101300.06;6164327;23;20011;-69
2023/08/04 09:13:46;;;;;;;4.38;1.80;;;;;;;18.63;76.63;101308.41;6188796;23;20009;-69
2023/08/04 09:16:12;;;;;;;3.08;1.73;;;;;;;18.69;77.87;101308.16;6188382;23;20031;-69
2023/08/04 09:18:39;;;;;;;4.65;2.22;;;;;;;18.78;79.33;101308.75;6187714;23;20017;-69
2023/08/04 09:21:07;;;;;;;4.22;2.08;;;;;;;18.83;79.10;101307.63;6164124;23;20066;-68
2023/08/04 09:23:51;;;;;;;3.63;1.85;;;;;;;18.90;80.33;101310.94;6189062;23;20012;-69
2023/08/04 09:26:16;;;;;;;5.90;2.40;;;;;;;18.81;79.56;101298.00;6188900;23;20385;-69
2023/08/04 09:28:42;;;;;;;5.43;1.95;;;;;;;18.89;79.48;101298.56;6163606;23;20092;-69
2023/08/04 09:31:12;;;;;;;4.45;2.30;;;;;;;18.86;78.60;101317.25;6163596;23;20019;-69
2023/08/04 09:33:41;;;;;;;11.10;2.58;;;;;;;18.90;76.28;101312.72;6138422;23;20039;-69
2023/08/04 09:36:11;;;;;;;12.83;3.03;;;;;;;18.92;78.98;101313.53;6164149;23;20039;-69
2023/08/04 09:38:38;;;;;;;4.40;1.83;;;;;;;19.04;78.95;101316.56;6188449;23;20274;-69
2023/08/04 09:41:11;;;;;;;8.43;2.33;;;;;;;19.07;79.01;101306.75;6163664;23;20031;-69
2023/08/04 09:43:47;;;;;;;9.27;2.42;;;;;;;19.14;76.97;101305.59;6188592;23;20092;-69
2023/08/04 09:46:13;;;;;;;4.35;1.75;;;;;;;19.18;77.52;101308.06;6139497;23;20015;-69
2023/08/04 09:48:38;;;;;;;4.20;1.70;;;;;;;19.26;76.91;101320.16;6187826;23;20080;-69
2023/08/04 09:51:14;;;;;;;4.55;1.92;;;;;;;19.35;77.24;101307.38;6164007;23;20427;-69
2023/08/04 09:53:45;;;;;;;4.22;1.90;;;;;;;19.60;77.91;101303.69;6188588;23;20307;-69
2023/08/04 09:56:12;;;;;;;4.68;1.92;;;;;;;19.80;77.69;101309.97;6188302;23;20005;-69
2023/08/04 09:58:39;;;;;;;2.75;1.80;;;;;;;19.86;75.33;101312.38;6188136;23;20036;-70
2023/08/04 10:01:05;;;;;;;4.00;1.95;;;;;;;19.72;73.88;101310.25;6163490;23;20344;-69
2023/08/04 10:03:32;;;;;;;4.35;2.00;;;;;;;19.73;74.46;101310.19;6187558;23;20091;-69
2023/08/04 10:06:05;;;;;;;3.45;1.45;;;;;;;19.71;76.69;101306.75;6163987;23;20040;-69
2023/08/04 10:08:33;;;;;;;2.40;1.58;;;;;;;19.84;77.59;101311.56;6164919;23;20005;-69
2023/08/04 10:10:59;;;;;;;5.45;1.83;;;;;;;19.67;75.55;101310.47;6163708;23;20005;-69
2023/08/04 10:13:26;;;;;;;2.47;1.30;;;;;;;19.72;75.95;101323.56;6163236;23;20028;-69
2023/08/04 10:15:55;;;;;;;3.70;1.40;;;;;;;19.59;75.52;101315.22;6187261;23;20028;-69
2023/08/04 10:18:22;;;;;;;2.53;1.65;;;;;;;19.47;75.62;101311.31;6187337;23;20000;-69
2023/08/04 10:20:49;;;;;;;3.28;2.00;;;;;;;19.51;75.29;101315.56;6163818;23;20043;-69
2023/08/04 10:23:15;;;;;;;3.45;1.70;;;;;;;19.60;77.31;101310.81;6163925;23;20090;-69
2023/08/04 10:25:54;;;;;;;3.92;1.83;;;;;;;19.69;76.71;101321.88;6163449;23;20402;-69
2023/08/04 10:28:19;;;;;;;4.35;2.00;;;;;;;19.64;75.51;101315.91;6188145;23;20004;-69
2023/08/04 10:30:44;;;;;;;6.50;2.10;;;;;;;19.69;74.49;101324.53;6162918;23;20059;-69
2023/08/04 10:33:10;;;;;;;4.25;1.98;;;;;;;19.60;73.09;101313.47;6162408;23;20013;-69
2023/08/04 10:36:09;;;;;;;3.03;1.90;;;;;;;19.74;74.86;101314.59;6188157;23;20316;-69
2023/08/04 10:38:49;;;;;;;4.07;1.65;;;;;;;19.80;74.32;101323.28;6188084;23;20013;-69
2023/08/04 10:41:15;;;;;;;3.38;1.52;;;;;;;19.93;72.57;101320.97;6187919;23;20475;-69
2023/08/04 10:43:59;;;;;;;2.78;1.30;;;;;;;20.08;73.96;101321.16;6187247;23;20338;-69
2023/08/04 10:46:25;;;;;;;3.60;1.55;;;;;;;20.09;72.65;101322.00;6187366;23;20019;-69
2023/08/04 10:48:50;;;;;;;7.78;2.22;;;;;;;20.18;72.30;101331.38;6162135;23;20118;-69
2023/08/04 10:51:16;;;;;;;3.13;1.50;;;;;;;20.29;69.92;101331.75;6163266;23;20095;-69
2023/08/04 10:53:42;;;;;;;2.92;1.85;;;;;;;20.39;70.99;101326.91;6163495;23;20307;-69
2023/08/04 10:56:09;;;;;;;3.60;1.60;;;;;;;20.43;69.35;101333.81;6163293;23;20099;-69
2023/08/04 10:58:35;;;;;;;5.85;1.92;;;;;;;20.35;67.94;101334.13;6163106;23;20009;-69
2023/08/04 11:01:01;;;;;;;4.55;1.75;;;;;;;20.10;66.17;101331.72;6162985;23;20009;-69
2023/08/04 11:03:37;;;;;;;3.10;1.60;;;;;;;20.29;69.07;101344.22;6187144;23;20025;-69
2023/08/04 11:06:04;;;;;;;4.50;2.22;;;;;;;20.19;68.38;101346.41;6187773;23;20000;-69
2023/08/04 11:08:29;;;;;;;6.55;2.33;;;;;;;20.16;69.77;101343.88;6163050;23;20004;-67
2023/08/04 11:10:57;;;;;;;4.45;1.70;;;;;;;20.26;69.88;101339.88;6188012;23;20019;-67
2023/08/04 11:13:24;;;;;;;4.50;2.00;;;;;;;20.28;69.46;101343.31;6163196;23;20024;-66
2023/08/04 11:15:53;;;;;;;4.18;1.90;;;;;;;20.39;70.80;101340.19;6187190;23;20320;-67
2023/08/04 11:18:29;;;;;;;4.00;2.13;;;;;;;20.48;72.65;101334.44;6138802;23;20017;-66
2023/08/04 11:21:00;;;;;;;3.03;1.88;;;;;;;20.66;70.80;101338.06;6187977;23;20391;-69
2023/08/04 11:23:28;;;;;;;3.88;1.85;;;;;;;20.76;70.01;101344.72;6187799;23;20020;-69
2023/08/04 11:25:54;;;;;;;6.03;2.28;;;;;;;20.71;69.33;101344.06;6187821;23;20012;-69
2023/08/04 11:28:21;;;;;;;3.95;2.10;;;;;;;20.96;73.28;101342.94;6187882;23;20426;-69
2023/08/04 11:30:47;;;;;;;5.03;2.08;;;;;;;21.00;71.04;101344.50;6164888;23;20009;-69
2023/08/04 11:33:13;;;;;;;5.57;2.60;;;;;;;21.06;70.39;101348.66;6164511;23;20015;-69
2023/08/04 11:35:39;;;;;;;5.68;2.63;;;;;;;21.17;71.09;101348.16;6189797;23;20106;-69
2023/08/04 11:38:04;;;;;;;5.78;1.85;;;;;;;21.06;66.82;101346.00;6164947;23;20008;-69
2023/08/04 11:40:31;;;;;;;3.28;1.73;;;;;;;21.14;68.88;101353.66;6189589;23;20366;-69
2023/08/04 11:43:00;;;;;;;4.10;2.10;;;;;;;20.84;67.74;101356.81;6189764;23;20017;-69
2023/08/04 11:45:29;;;;;;;4.82;2.17;;;;;;;20.77;68.22;101356.22;6189414;23;20013;-69